createdAt,value
2019-03-03T00:02:14.057Z,9.60
2019-03-03T00:04:46.376Z,7.78
2019-03-03T00:07:18.623Z,10.48
2019-03-03T00:09:50.863Z,6.97
2019-03-03T00:12:23.119Z,11.63
2019-03-03T00:14:55.345Z,5.33
2019-03-03T00:17:27.579Z,10.58
2019-03-03T00:19:59.870Z,6.75
2019-03-03T00:22:32.107Z,6.25
2019-03-03T00:25:05.121Z,7.83
2019-03-03T00:27:37.343Z,6.40
2019-03-03T00:30:11.120Z,8.98
2019-03-03T00:32:43.363Z,6.80
2019-03-03T00:35:15.613Z,6.28
2019-03-03T00:37:52.242Z,9.33
2019-03-03T00:40:34.974Z,10.53
2019-03-03T00:43:14.527Z,9.03
2019-03-03T00:45:51.105Z,7.10
2019-03-03T00:48:30.969Z,2.77
2019-03-03T00:51:14.002Z,7.83
2019-03-03T00:53:50.579Z,10.18
2019-03-03T00:56:27.099Z,12.73
2019-03-03T00:59:09.916Z,6.45
2019-03-03T01:01:55.621Z,5.83
2019-03-03T01:04:35.508Z,5.97
2019-03-03T01:07:09.388Z,8.45
2019-03-03T01:09:43.244Z,6.53
2019-03-03T01:12:25.795Z,5.25
2019-03-03T01:15:05.393Z,6.65
2019-03-03T01:17:41.995Z,11.22
2019-03-03T01:20:24.702Z,8.08
2019-03-03T01:23:16.691Z,7.72
2019-03-03T01:25:48.926Z,10.05
2019-03-03T01:28:21.150Z,13.13
2019-03-03T01:30:53.415Z,8.83
2019-03-03T01:33:25.637Z,8.93
2019-03-03T01:35:57.890Z,5.00
2019-03-03T01:38:30.149Z,11.60
2019-03-03T01:41:02.403Z,8.45
2019-03-03T01:43:34.667Z,11.38
2019-03-03T01:46:06.903Z,7.17
2019-03-03T01:48:39.220Z,5.95
2019-03-03T01:51:11.478Z,7.75
2019-03-03T01:53:43.698Z,12.55
2019-03-03T01:56:15.957Z,12.45
2019-03-03T01:58:48.182Z,11.90
2019-03-03T02:01:20.456Z,11.60
2019-03-03T02:03:52.683Z,9.80
2019-03-03T02:06:24.961Z,9.85
2019-03-03T02:08:57.570Z,8.43
2019-03-03T02:11:29.827Z,9.40
2019-03-03T02:14:02.154Z,12.60
2019-03-03T02:16:34.461Z,17.32
2019-03-03T02:19:06.756Z,10.98
2019-03-03T02:21:39.098Z,9.50
2019-03-03T02:24:11.389Z,11.10
2019-03-03T02:26:43.618Z,7.53
2019-03-03T02:29:15.839Z,8.05
2019-03-03T02:31:48.168Z,13.48
2019-03-03T02:34:20.415Z,6.12
2019-03-03T02:36:52.903Z,12.00
2019-03-03T02:39:25.160Z,8.53
2019-03-03T02:41:57.471Z,11.33
2019-03-03T02:44:30.158Z,7.78
2019-03-03T02:47:02.435Z,7.67
2019-03-03T02:49:35.504Z,9.25
2019-03-03T02:52:08.192Z,11.97
2019-03-03T02:54:40.685Z,12.30
2019-03-03T02:57:12.954Z,18.00
2019-03-03T02:59:45.185Z,11.80
2019-03-03T03:02:19.069Z,9.05
2019-03-03T03:04:51.311Z,8.23
2019-03-03T03:07:25.201Z,9.93
2019-03-03T03:10:04.757Z,9.45
2019-03-03T03:12:53.438Z,11.10
2019-03-03T03:15:42.399Z,8.08
2019-03-03T03:18:32.509Z,8.73
2019-03-03T03:21:18.105Z,13.15
2019-03-03T03:23:51.976Z,13.13
2019-03-03T03:26:37.643Z,16.05
2019-03-03T03:29:14.327Z,5.58
2019-03-03T03:31:48.219Z,10.40
2019-03-03T03:34:22.104Z,10.18
2019-03-03T03:37:07.828Z,11.80
2019-03-03T03:39:41.707Z,12.50
2019-03-03T03:42:27.158Z,8.18
2019-03-03T03:45:12.860Z,11.60
2019-03-03T03:47:49.678Z,14.53
2019-03-03T03:50:23.555Z,18.10
2019-03-03T03:52:57.436Z,10.45
2019-03-03T03:55:34.053Z,10.93
2019-03-03T03:58:07.947Z,13.85
2019-03-03T04:00:47.931Z,11.50
2019-03-03T04:03:21.830Z,6.40
2019-03-03T04:06:11.922Z,9.10
2019-03-03T04:08:45.793Z,10.90
2019-03-03T04:11:37.788Z,10.03
2019-03-03T04:14:11.884Z,12.88
2019-03-03T04:16:51.572Z,9.55
2019-03-03T04:19:25.530Z,8.23
2019-03-03T04:22:17.517Z,11.35
2019-03-03T04:24:54.322Z,11.33
2019-03-03T04:27:28.209Z,11.97
2019-03-03T04:30:02.075Z,9.93
2019-03-03T04:32:38.928Z,8.33
2019-03-03T04:35:15.506Z,10.48
2019-03-03T04:37:56.032Z,7.33
2019-03-03T04:40:35.477Z,12.07
2019-03-03T04:43:18.273Z,14.63
2019-03-03T04:45:52.136Z,7.25
2019-03-03T04:48:28.701Z,14.68
2019-03-03T04:51:17.416Z,15.80
2019-03-03T04:53:54.274Z,19.55
2019-03-03T04:56:33.911Z,10.60
2019-03-03T04:59:16.731Z,15.00
2019-03-03T05:01:50.628Z,9.85
2019-03-03T05:04:30.427Z,14.15
2019-03-03T05:07:06.754Z,9.68
2019-03-03T05:09:46.706Z,13.05
2019-03-03T05:12:20.605Z,17.75
2019-03-03T05:14:54.485Z,8.83
2019-03-03T05:17:37.194Z,7.80
2019-03-03T05:20:11.128Z,11.30
2019-03-03T05:22:43.370Z,16.35
2019-03-03T05:25:15.604Z,16.10
2019-03-03T05:27:47.838Z,7.12
2019-03-03T05:30:20.075Z,8.50
2019-03-03T05:32:52.335Z,13.90
2019-03-03T05:35:24.612Z,10.38
2019-03-03T05:37:56.871Z,14.78
2019-03-03T05:40:29.113Z,8.05
2019-03-03T05:43:01.357Z,17.62
2019-03-03T05:45:33.722Z,12.07
2019-03-03T05:48:05.974Z,13.88
2019-03-03T05:50:38.268Z,7.30
2019-03-03T05:53:10.585Z,14.63
2019-03-03T05:55:42.888Z,13.55
2019-03-03T05:58:15.157Z,12.70
2019-03-03T06:00:47.386Z,14.43
2019-03-03T06:03:19.627Z,8.98
2019-03-03T06:05:51.875Z,7.03
2019-03-03T06:08:24.142Z,14.58
2019-03-03T06:10:56.371Z,14.53
2019-03-03T06:13:28.622Z,10.18
2019-03-03T06:16:00.884Z,17.45
2019-03-03T06:18:33.123Z,16.95
2019-03-03T06:21:05.616Z,9.88
2019-03-03T06:23:37.883Z,12.82
2019-03-03T06:26:10.195Z,11.55
2019-03-03T06:28:42.461Z,15.65
2019-03-03T06:31:14.722Z,12.95
2019-03-03T06:33:46.969Z,16.70
2019-03-03T06:36:19.210Z,12.40
2019-03-03T06:38:51.451Z,12.20
2019-03-03T06:41:23.698Z,7.90
2019-03-03T06:43:55.953Z,15.70
2019-03-03T06:46:28.206Z,9.33
2019-03-03T06:49:00.457Z,17.35
2019-03-03T06:51:32.679Z,9.95
2019-03-03T06:54:04.944Z,12.05
2019-03-03T06:56:37.185Z,13.70
2019-03-03T06:59:09.420Z,15.65
2019-03-03T07:01:41.721Z,14.40
2019-03-03T07:04:13.946Z,11.95
2019-03-03T07:06:46.194Z,13.90
2019-03-03T07:09:18.428Z,14.38
2019-03-03T07:11:50.651Z,12.73
2019-03-03T07:14:22.894Z,17.80
2019-03-03T07:16:55.129Z,7.30
2019-03-03T07:19:27.383Z,21.12
2019-03-03T07:21:59.628Z,12.43
2019-03-03T07:24:31.905Z,14.73
2019-03-03T07:27:04.150Z,13.60
2019-03-03T07:29:36.408Z,10.35
2019-03-03T07:32:08.642Z,13.05
2019-03-03T07:34:40.907Z,16.00
2019-03-03T07:37:13.164Z,12.85
2019-03-03T07:39:45.404Z,4.33
2019-03-03T07:42:17.622Z,12.70
2019-03-03T07:44:49.922Z,13.70
2019-03-03T07:47:22.169Z,13.95
2019-03-03T07:49:54.420Z,9.87
2019-03-03T07:52:26.651Z,11.28
2019-03-03T07:54:58.906Z,13.08
2019-03-03T07:57:31.178Z,8.05
2019-03-03T08:00:05.037Z,14.40
2019-03-03T08:02:37.288Z,12.65
2019-03-03T08:05:10.030Z,13.18
2019-03-03T08:07:42.307Z,10.18
2019-03-03T08:10:14.935Z,20.45
2019-03-03T08:12:47.157Z,13.68
2019-03-03T08:15:19.537Z,11.20
2019-03-03T08:17:51.753Z,8.30
2019-03-03T08:20:24.014Z,17.25
2019-03-03T08:22:56.250Z,13.85
2019-03-03T08:25:28.511Z,14.35
2019-03-03T08:28:00.729Z,21.02
2019-03-03T08:30:33.015Z,5.70
2019-03-03T08:33:05.248Z,9.78
2019-03-03T08:35:37.497Z,9.25
2019-03-03T08:38:09.729Z,12.50
2019-03-03T08:40:41.992Z,13.68
2019-03-03T08:43:15.848Z,10.48
2019-03-03T08:45:55.851Z,13.90
2019-03-03T08:48:41.744Z,16.07
2019-03-03T08:51:18.319Z,12.13
2019-03-03T08:53:57.887Z,8.87
2019-03-03T08:56:34.709Z,14.45
2019-03-03T08:59:08.617Z,8.98
2019-03-03T09:01:51.314Z,11.15
2019-03-03T09:04:27.830Z,11.30
2019-03-03T09:07:01.699Z,10.53
2019-03-03T09:09:35.592Z,7.55
2019-03-03T09:12:24.557Z,6.03
2019-03-03T09:15:07.292Z,14.00
2019-03-03T09:17:41.163Z,10.35
2019-03-03T09:20:30.207Z,8.60
2019-03-03T09:23:04.065Z,7.53
2019-03-03T09:25:37.958Z,7.55
2019-03-03T09:28:14.462Z,4.92
2019-03-03T09:30:51.056Z,10.05
2019-03-03T09:33:41.042Z,5.58
2019-03-03T09:36:17.894Z,8.70
2019-03-03T09:38:54.496Z,5.12
2019-03-03T09:41:43.210Z,8.75
2019-03-03T09:44:17.068Z,5.47
2019-03-03T09:46:59.891Z,6.62
2019-03-03T09:49:36.719Z,6.00
2019-03-03T09:52:10.617Z,6.50
2019-03-03T09:54:59.371Z,5.17
2019-03-03T09:57:41.983Z,5.42
2019-03-03T10:00:30.630Z,7.70
2019-03-03T10:03:10.467Z,3.90
2019-03-03T10:05:44.327Z,6.13
2019-03-03T10:08:18.240Z,7.33
2019-03-03T10:11:01.127Z,6.37
2019-03-03T10:13:49.691Z,4.85
2019-03-03T10:16:32.514Z,9.90
2019-03-03T10:19:15.424Z,7.58
2019-03-03T10:21:58.102Z,7.78
2019-03-03T10:24:48.166Z,2.25
2019-03-03T10:27:22.088Z,5.25
2019-03-03T10:30:07.878Z,6.65
2019-03-03T10:32:50.456Z,5.92
2019-03-03T10:35:24.351Z,7.15
2019-03-03T10:37:58.237Z,5.55
2019-03-03T10:40:38.140Z,9.33
2019-03-03T10:43:21.159Z,3.33
2019-03-03T10:46:03.673Z,6.90
2019-03-03T10:48:46.685Z,3.00
2019-03-03T10:51:23.349Z,3.87
2019-03-03T10:54:06.058Z,3.70
2019-03-03T10:56:45.634Z,5.10
2019-03-03T10:59:35.488Z,7.20
2019-03-03T11:02:18.124Z,5.63
2019-03-03T11:04:51.999Z,4.62
2019-03-03T11:07:43.752Z,8.10
2019-03-03T11:10:17.802Z,4.17
2019-03-03T11:13:00.779Z,4.08
2019-03-03T11:15:43.674Z,4.42
2019-03-03T11:18:17.553Z,4.35
2019-03-03T11:21:06.258Z,9.88
2019-03-03T11:23:43.084Z,3.83
2019-03-03T11:26:19.895Z,4.60
2019-03-03T11:29:10.192Z,3.47
2019-03-03T11:31:44.058Z,4.17
2019-03-03T11:34:20.749Z,4.35
2019-03-03T11:36:55.578Z,2.72
2019-03-03T11:39:29.495Z,4.22
2019-03-03T11:42:03.406Z,3.92
2019-03-03T11:44:39.979Z,2.42
2019-03-03T11:47:13.841Z,2.47
2019-03-03T11:49:59.681Z,3.85
2019-03-03T11:52:33.542Z,3.70
2019-03-03T11:55:11.226Z,4.50
2019-03-03T11:57:47.894Z,3.17
2019-03-03T12:00:38.011Z,4.33
2019-03-03T12:03:29.799Z,4.23
2019-03-03T12:06:03.767Z,5.35
2019-03-03T12:08:37.659Z,11.08
2019-03-03T12:11:11.668Z,5.47
2019-03-03T12:14:01.670Z,3.90
2019-03-03T12:16:51.867Z,3.83
2019-03-03T12:19:40.576Z,7.23
2019-03-03T12:22:17.430Z,3.65
2019-03-03T12:24:51.398Z,5.25
2019-03-03T12:27:28.118Z,5.17
2019-03-03T12:30:11.051Z,5.93
2019-03-03T12:32:47.422Z,4.87
2019-03-03T12:35:37.355Z,5.10
2019-03-03T12:38:11.301Z,4.33
2019-03-03T12:40:53.987Z,5.95
2019-03-03T12:43:27.864Z,4.25
2019-03-03T12:46:16.655Z,4.30
2019-03-03T12:48:50.522Z,6.20
2019-03-03T12:51:24.395Z,5.28
2019-03-03T12:54:04.031Z,3.00
2019-03-03T12:56:40.848Z,3.75
2019-03-03T12:59:32.572Z,3.45
2019-03-03T13:02:06.559Z,4.22
2019-03-03T13:04:46.203Z,3.50
2019-03-03T13:07:36.422Z,4.58
2019-03-03T13:10:19.750Z,3.97
2019-03-03T13:12:56.338Z,3.50
2019-03-03T13:15:42.046Z,5.92
2019-03-03T13:18:15.919Z,5.05
2019-03-03T13:20:58.613Z,6.70
2019-03-03T13:23:32.523Z,6.08
2019-03-03T13:26:12.188Z,7.45
2019-03-03T13:28:48.993Z,4.42
2019-03-03T13:31:26.525Z,3.25
2019-03-03T13:34:18.310Z,5.12
2019-03-03T13:36:52.212Z,8.65
2019-03-03T13:39:43.823Z,4.85
2019-03-03T13:42:20.440Z,3.83
2019-03-03T13:44:52.719Z,4.40
2019-03-03T13:47:24.961Z,3.70
2019-03-03T13:49:57.270Z,2.83
2019-03-03T13:52:29.517Z,4.00
2019-03-03T13:55:01.753Z,3.45
2019-03-03T13:57:33.994Z,3.85
2019-03-03T14:00:07.766Z,4.33
2019-03-03T14:02:40.018Z,5.62
2019-03-03T14:05:12.243Z,4.53
2019-03-03T14:07:44.600Z,4.15
2019-03-03T14:10:16.938Z,2.72
2019-03-03T14:12:49.194Z,3.17
2019-03-03T14:15:21.427Z,2.80
2019-03-03T14:17:53.671Z,3.00
2019-03-03T14:20:25.958Z,2.75
2019-03-03T14:22:58.206Z,3.40
2019-03-03T14:25:30.440Z,1.98
2019-03-03T14:28:02.683Z,2.92
2019-03-03T14:30:34.922Z,2.10
2019-03-03T14:33:07.245Z,2.90
2019-03-03T14:35:40.382Z,2.67
2019-03-03T14:38:12.661Z,5.25
2019-03-03T14:40:44.925Z,2.87
2019-03-03T14:43:17.240Z,2.45
2019-03-03T14:45:49.517Z,1.55
2019-03-03T14:48:21.831Z,4.17
2019-03-03T14:50:54.151Z,5.07
2019-03-03T14:53:26.406Z,7.12
2019-03-03T14:55:58.702Z,4.10
2019-03-03T14:58:30.955Z,4.92
2019-03-03T15:01:03.461Z,6.08
2019-03-03T15:03:35.719Z,5.53
2019-03-03T15:09:34.403Z,9.00
2019-03-03T15:12:06.663Z,8.80
2019-03-03T15:14:38.975Z,4.75
2019-03-03T15:17:11.203Z,4.80
2019-03-03T15:19:43.443Z,6.78
2019-03-03T15:22:15.676Z,7.97
2019-03-03T15:24:47.940Z,11.65
2019-03-03T15:27:20.160Z,7.40
2019-03-03T15:29:52.421Z,6.92
2019-03-03T15:32:24.744Z,8.30
2019-03-03T15:34:56.984Z,8.08
2019-03-03T15:37:29.215Z,9.85
2019-03-03T15:40:01.460Z,8.50
2019-03-03T15:42:33.754Z,6.62
2019-03-03T15:45:07.620Z,11.35
2019-03-03T15:47:39.871Z,11.05
2019-03-03T15:50:13.198Z,9.63
2019-03-03T15:52:45.894Z,8.35
2019-03-03T15:55:19.194Z,11.93
2019-03-03T15:57:51.431Z,8.00
2019-03-03T16:00:25.229Z,9.90
2019-03-03T16:02:57.455Z,9.10
2019-03-03T16:05:29.711Z,10.15
2019-03-03T16:08:01.942Z,8.10
2019-03-03T16:10:34.201Z,9.58
2019-03-03T16:13:06.427Z,11.30
2019-03-03T16:15:38.681Z,9.65
2019-03-03T16:18:11.887Z,12.58
2019-03-03T16:20:44.143Z,10.95
2019-03-03T16:23:16.401Z,12.18
2019-03-03T16:25:48.668Z,9.23
2019-03-03T16:28:21.000Z,12.80
2019-03-03T16:30:53.258Z,11.40
2019-03-03T16:33:25.492Z,9.53
2019-03-03T16:35:57.731Z,13.45
2019-03-03T16:38:30.014Z,10.50
2019-03-03T16:41:02.246Z,12.43
2019-03-03T16:43:34.583Z,10.20
2019-03-03T16:46:06.814Z,9.40
2019-03-03T16:48:39.072Z,13.48
2019-03-03T16:51:11.332Z,13.95
2019-03-03T16:53:43.563Z,12.88
2019-03-03T16:56:15.813Z,13.78
2019-03-03T16:58:49.001Z,11.28
2019-03-03T17:01:21.483Z,15.78
2019-03-03T17:03:53.704Z,12.40
2019-03-03T17:06:26.877Z,14.93
2019-03-03T17:08:59.099Z,12.10
2019-03-03T17:11:31.431Z,14.85
2019-03-03T17:14:03.744Z,13.98
2019-03-03T17:16:36.005Z,11.48
2019-03-03T17:19:08.247Z,11.28
2019-03-03T17:21:40.524Z,13.22
2019-03-03T17:24:12.753Z,19.48
2019-03-03T17:26:45.017Z,15.38
2019-03-03T17:29:17.243Z,12.65
2019-03-03T17:31:49.516Z,15.65
2019-03-03T17:34:21.712Z,15.25
2019-03-03T17:36:53.961Z,10.95
2019-03-03T17:39:26.471Z,11.73
2019-03-03T17:41:58.732Z,11.43
2019-03-03T17:44:30.958Z,10.48
2019-03-03T17:47:03.275Z,11.12
2019-03-03T17:49:35.513Z,11.03
2019-03-03T17:52:07.794Z,11.85
2019-03-03T17:54:40.014Z,12.95
2019-03-03T17:57:12.270Z,13.30
2019-03-03T17:59:44.570Z,12.70
2019-03-03T18:02:16.826Z,12.33
2019-03-03T18:04:49.062Z,12.68
2019-03-03T18:07:21.381Z,13.25
2019-03-03T18:09:53.597Z,8.58
2019-03-03T18:12:25.841Z,12.68
2019-03-03T18:14:58.076Z,11.78
2019-03-03T18:17:30.322Z,11.28
2019-03-03T18:20:02.615Z,11.90
2019-03-03T18:22:35.075Z,12.40
2019-03-03T18:25:08.204Z,12.45
2019-03-03T18:27:40.438Z,9.20
2019-03-03T18:30:14.198Z,13.38
2019-03-03T18:32:46.528Z,14.43
2019-03-03T18:35:19.033Z,14.23
2019-03-03T18:37:51.330Z,15.05
2019-03-03T18:40:24.254Z,11.18
2019-03-03T18:42:56.595Z,12.60
2019-03-03T18:45:28.995Z,11.70
2019-03-03T18:48:01.256Z,13.83
2019-03-03T18:50:33.481Z,13.35
2019-03-03T18:53:05.960Z,9.43
2019-03-03T18:55:38.190Z,10.80
2019-03-03T18:58:10.479Z,12.47
2019-03-03T19:00:42.756Z,10.88
2019-03-03T19:03:15.046Z,13.32
2019-03-03T19:05:55.477Z,13.70
2019-03-03T19:08:21.439Z,10.95
2019-03-03T19:10:53.839Z,11.97
2019-03-03T19:13:26.092Z,11.12
2019-03-03T19:15:58.366Z,11.03
2019-03-03T19:18:30.627Z,9.83
2019-03-03T19:21:02.868Z,14.33
2019-03-03T19:23:35.221Z,15.60
2019-03-03T19:26:07.523Z,17.55
2019-03-03T19:28:39.784Z,11.63
2019-03-03T19:31:12.007Z,14.40
2019-03-03T19:33:45.926Z,7.40
2019-03-03T19:36:18.155Z,13.90
2019-03-03T19:38:50.407Z,13.30
2019-03-03T19:41:22.665Z,10.53
2019-03-03T19:43:54.940Z,14.47
2019-03-03T19:46:27.170Z,10.82
2019-03-03T19:48:59.411Z,9.93
2019-03-03T19:51:31.655Z,7.90
2019-03-03T19:54:04.096Z,11.13
2019-03-03T19:56:36.312Z,6.87
2019-03-03T19:59:08.608Z,9.33
2019-03-03T20:01:40.870Z,11.03
2019-03-03T20:04:13.177Z,8.68
2019-03-03T20:06:45.413Z,8.65
2019-03-03T20:09:19.250Z,5.45
2019-03-03T20:11:51.590Z,6.00
2019-03-03T20:14:23.843Z,11.08
2019-03-03T20:16:56.245Z,7.33
2019-03-03T20:19:28.598Z,6.50
2019-03-03T20:22:00.839Z,6.97
2019-03-03T20:24:33.115Z,8.10
2019-03-03T20:27:05.350Z,5.25
2019-03-03T20:29:37.598Z,5.95
2019-03-03T20:32:09.907Z,6.45
2019-03-03T20:34:42.187Z,4.25
2019-03-03T20:37:14.420Z,8.03
2019-03-03T20:39:46.639Z,5.60
2019-03-03T20:42:18.938Z,3.67
2019-03-03T20:44:51.180Z,5.78
2019-03-03T20:47:23.507Z,6.30
2019-03-03T20:49:55.731Z,6.03
2019-03-03T20:52:28.811Z,5.47
2019-03-03T20:55:01.193Z,2.83
2019-03-03T20:57:33.499Z,5.00
2019-03-03T21:00:07.327Z,4.22
2019-03-03T21:02:39.699Z,7.05
2019-03-03T21:05:12.002Z,8.18
2019-03-03T21:07:51.538Z,5.90
2019-03-03T21:10:19.112Z,6.50
2019-03-03T21:12:51.391Z,2.87
2019-03-03T21:15:23.619Z,4.58
2019-03-03T21:17:55.957Z,5.13
2019-03-03T21:20:28.190Z,3.95
2019-03-03T21:23:00.454Z,5.17
2019-03-03T21:25:32.703Z,3.22
2019-03-03T21:28:05.003Z,4.30
2019-03-03T21:30:37.218Z,5.25
2019-03-03T21:33:09.471Z,3.27
2019-03-03T21:35:41.711Z,4.17
2019-03-03T21:38:13.974Z,4.92
2019-03-03T21:40:46.467Z,6.33
2019-03-03T21:43:20.888Z,4.45
2019-03-03T21:45:52.739Z,6.43
2019-03-03T21:48:25.038Z,7.25
2019-03-03T21:50:57.266Z,5.72
2019-03-03T21:53:29.503Z,8.33
2019-03-03T21:56:01.835Z,6.33
2019-03-03T21:58:34.253Z,6.55
2019-03-03T22:01:07.858Z,6.72
2019-03-03T22:03:40.322Z,7.60
2019-03-03T22:06:12.548Z,9.03
2019-03-03T22:08:45.679Z,7.20
2019-03-03T22:11:18.102Z,5.80
2019-03-03T22:13:50.353Z,5.95
2019-03-03T22:16:22.652Z,8.93
2019-03-03T22:18:54.895Z,7.08
2019-03-03T22:21:27.194Z,11.15
2019-03-03T22:23:59.462Z,9.55
2019-03-03T22:26:31.700Z,8.15
2019-03-03T22:29:03.977Z,9.30
2019-03-03T22:31:36.202Z,7.28
2019-03-03T22:34:08.648Z,7.33
2019-03-03T22:36:40.890Z,8.13
2019-03-03T22:39:13.136Z,5.50
2019-03-03T22:41:45.373Z,8.13
2019-03-03T22:44:17.642Z,7.00
2019-03-03T22:46:49.877Z,9.85
2019-03-03T22:49:22.146Z,10.28
2019-03-03T22:51:54.416Z,10.80
2019-03-03T22:54:26.675Z,12.45
2019-03-03T22:56:58.895Z,9.27
2019-03-03T22:59:31.160Z,7.55
2019-03-03T23:02:03.379Z,7.97
2019-03-03T23:04:53.629Z,7.53
2019-03-03T23:07:30.292Z,6.27
2019-03-03T23:10:20.329Z,9.85
2019-03-03T23:12:54.112Z,9.78
2019-03-03T23:15:36.722Z,7.30
2019-03-03T23:18:25.347Z,9.95
2019-03-03T23:20:59.115Z,7.37
2019-03-03T23:23:49.403Z,7.47
2019-03-03T23:26:21.642Z,8.53
2019-03-03T23:28:54.020Z,10.25
2019-03-03T23:31:26.294Z,10.60
2019-03-03T23:33:58.552Z,9.58
2019-03-03T23:36:30.816Z,6.37
2019-03-03T23:39:04.281Z,5.42
2019-03-03T23:41:36.542Z,11.38
2019-03-03T23:44:08.915Z,5.75
2019-03-03T23:46:41.135Z,9.68
2019-03-03T23:49:13.407Z,7.47
2019-03-03T23:51:45.644Z,8.43
2019-03-03T23:54:17.908Z,5.60
2019-03-03T23:56:50.143Z,7.97
2019-03-03T23:59:22.384Z,6.75
